createdAt,value
2019-05-05T00:05:08.548Z,3.50
2019-05-05T00:07:58.567Z,3.50
2019-05-05T00:10:54.138Z,3.50
2019-05-05T00:13:51.016Z,3.50
2019-05-05T00:41:41.421Z,3.40
2019-05-05T00:47:50.492Z,3.30
2019-05-05T01:08:35.236Z,3.20
2019-05-05T01:45:35.697Z,3.60
2019-05-05T01:48:10.254Z,3.70
2019-05-05T01:50:41.187Z,3.70
2019-05-05T01:53:11.795Z,3.80
2019-05-05T01:55:41.444Z,3.90
2019-05-05T01:58:11.485Z,3.90
2019-05-05T02:00:41.778Z,3.90
2019-05-05T02:06:17.232Z,3.70
2019-05-05T02:08:47.962Z,3.80
2019-05-05T02:11:21.605Z,3.70
2019-05-05T02:13:55.692Z,3.70
2019-05-05T02:16:26.957Z,3.60
2019-05-05T02:18:58.582Z,3.60
2019-05-05T02:32:30.262Z,3.60
2019-05-05T02:35:18.709Z,3.50
2019-05-05T02:37:58.415Z,3.50
2019-05-05T02:40:34.977Z,3.40
2019-05-05T02:43:15.370Z,3.40
2019-05-05T03:11:18.603Z,3.30
2019-05-05T03:42:25.615Z,2.90
2019-05-05T03:52:49.954Z,2.80
2019-05-05T03:55:24.048Z,2.80
2019-05-05T03:57:57.232Z,2.80
2019-05-05T04:01:04.261Z,2.80
2019-05-05T04:09:04.324Z,2.70
2019-05-05T04:11:44.413Z,2.80
2019-05-05T04:14:22.175Z,2.80
2019-05-05T04:20:11.423Z,2.90
2019-05-05T04:23:08.238Z,2.90
2019-05-05T04:28:45.327Z,2.80
2019-05-05T04:31:18.285Z,2.70
2019-05-05T04:39:37.206Z,2.70
2019-05-05T04:42:08.593Z,2.70
2019-05-05T04:47:34.303Z,2.60
2019-05-05T04:55:29.718Z,2.50
2019-05-05T05:03:54.985Z,2.50
2019-05-05T05:06:46.493Z,2.60
2019-05-05T05:09:26.952Z,2.60
2019-05-05T05:14:36.252Z,2.50
2019-05-05T05:17:11.345Z,2.50
2019-05-05T05:19:45.219Z,2.50
2019-05-05T05:22:17.500Z,2.50
2019-05-05T05:24:50.711Z,2.40
2019-05-05T05:27:24.450Z,2.40
2019-05-05T05:29:55.381Z,2.50
2019-05-05T05:32:26.544Z,2.60
2019-05-05T05:34:57.281Z,2.60
2019-05-05T05:37:28.566Z,2.70
2019-05-05T05:40:14.291Z,2.70
2019-05-05T05:46:28.809Z,2.80
2019-05-05T05:49:30.776Z,2.80
2019-05-05T05:52:13.432Z,2.90
2019-05-05T05:54:37.951Z,3.00
2019-05-05T05:57:09.215Z,3.00
2019-05-05T06:02:24.243Z,3.10
2019-05-05T06:04:59.491Z,3.00
2019-05-05T06:10:26.679Z,3.00
2019-05-05T06:27:39.191Z,3.20
2019-05-05T06:30:15.131Z,3.30
2019-05-05T06:32:46.324Z,3.30
2019-05-05T06:35:29.806Z,3.50
2019-05-05T06:38:09.062Z,3.60
2019-05-05T06:41:04.185Z,3.60
2019-05-05T06:43:54.319Z,3.70
2019-05-05T06:46:28.072Z,3.90
2019-05-05T06:48:57.586Z,4.10
2019-05-05T06:51:27.227Z,4.20
2019-05-05T06:53:56.904Z,4.20
2019-05-05T06:56:26.973Z,4.30
2019-05-05T06:58:56.511Z,4.20
2019-05-05T07:01:27.799Z,4.20
2019-05-05T07:03:58.514Z,4.10
2019-05-05T07:06:28.968Z,4.00
2019-05-05T07:09:36.081Z,4.00
2019-05-05T07:23:01.257Z,4.10
2019-05-05T07:25:39.132Z,4.40
2019-05-05T07:27:57.924Z,4.70
2019-05-05T07:30:27.367Z,4.80
2019-05-05T07:32:57.144Z,4.70
2019-05-05T07:35:37.420Z,4.80
2019-05-05T07:38:07.770Z,4.70
2019-05-05T07:40:37.212Z,4.60
2019-05-05T07:43:06.568Z,4.70
2019-05-05T07:45:35.994Z,4.90
2019-05-05T07:48:05.296Z,5.00
2019-05-05T07:50:35.911Z,5.10
2019-05-05T07:53:14.674Z,5.10
2019-05-05T07:55:36.993Z,5.00
2019-05-05T07:58:06.727Z,4.90
2019-05-05T08:00:36.360Z,4.80
2019-05-05T08:03:06.042Z,4.80
2019-05-05T08:05:35.543Z,4.70
2019-05-05T08:08:04.970Z,4.90
2019-05-05T08:10:34.593Z,5.20
2019-05-05T08:13:04.661Z,5.30
2019-05-05T08:15:34.829Z,5.50
2019-05-05T08:18:19.604Z,5.50
2019-05-05T08:20:53.779Z,5.50
2019-05-05T08:23:38.157Z,5.40
2019-05-05T08:26:26.331Z,5.40
2019-05-05T08:29:14.203Z,5.70
2019-05-05T08:31:50.908Z,5.90
2019-05-05T08:34:20.135Z,6.20
2019-05-05T08:36:49.458Z,6.30
2019-05-05T08:39:21.415Z,6.10
2019-05-05T08:41:49.937Z,6.00
2019-05-05T08:44:19.251Z,5.80
2019-05-05T08:46:48.591Z,5.80
2019-05-05T08:49:17.852Z,5.70
2019-05-05T08:51:47.408Z,5.50
2019-05-05T08:54:16.771Z,5.50
2019-05-05T08:56:46.110Z,5.50
2019-05-05T08:59:15.403Z,5.60
2019-05-05T09:01:45.005Z,5.70
2019-05-05T09:04:14.462Z,6.00
2019-05-05T09:06:43.957Z,6.00
2019-05-05T09:09:14.568Z,6.20
2019-05-05T09:11:43.987Z,6.30
2019-05-05T09:14:14.910Z,6.40
2019-05-05T09:16:46.098Z,6.60
2019-05-05T09:19:18.748Z,6.80
2019-05-05T09:21:48.071Z,6.90
2019-05-05T09:24:48.834Z,7.00
2019-05-05T09:27:33.874Z,7.20
2019-05-05T09:30:09.996Z,7.40
2019-05-05T09:32:39.270Z,7.50
2019-05-05T09:35:08.970Z,7.60
2019-05-05T09:37:38.662Z,7.70
2019-05-05T09:40:08.335Z,7.80
2019-05-05T09:42:37.638Z,7.90
2019-05-05T09:45:07.810Z,8.00
2019-05-05T09:47:37.151Z,8.00
2019-05-05T09:50:06.610Z,8.10
2019-05-05T09:52:36.047Z,8.10
2019-05-05T09:55:05.761Z,8.10
2019-05-05T09:57:35.159Z,8.20
2019-05-05T10:00:11.063Z,8.30
2019-05-05T10:02:40.355Z,8.40
2019-05-05T10:05:09.980Z,8.50
2019-05-05T10:07:39.263Z,8.50
2019-05-05T10:10:09.402Z,8.50
2019-05-05T10:12:38.707Z,8.50
2019-05-05T10:15:08.008Z,8.50
2019-05-05T10:17:37.355Z,8.20
2019-05-05T10:20:06.931Z,8.00
2019-05-05T10:22:36.240Z,7.60
2019-05-05T10:25:23.909Z,7.20
2019-05-05T10:27:53.961Z,7.20
2019-05-05T10:30:23.919Z,7.40
2019-05-05T10:32:54.521Z,7.50
2019-05-05T10:35:24.054Z,7.70
2019-05-05T10:37:54.471Z,7.80
2019-05-05T10:40:27.887Z,8.00
2019-05-05T10:42:57.242Z,8.10
2019-05-05T10:45:26.612Z,8.30
2019-05-05T10:47:56.012Z,8.40
2019-05-05T10:50:25.422Z,8.50
2019-05-05T10:52:55.047Z,8.60
2019-05-05T10:55:24.465Z,8.70
2019-05-05T10:57:54.660Z,8.80
2019-05-05T11:00:44.363Z,8.80
2019-05-05T11:03:14.801Z,8.80
2019-05-05T11:05:45.292Z,8.90
2019-05-05T11:08:14.710Z,8.90
2019-05-05T11:10:44.904Z,8.60
2019-05-05T11:13:14.816Z,8.40
2019-05-05T11:15:44.557Z,8.10
2019-05-05T11:18:14.855Z,7.90
2019-05-05T11:20:44.993Z,7.80
2019-05-05T11:23:15.141Z,7.80
2019-05-05T11:25:45.710Z,7.50
2019-05-05T11:28:15.094Z,7.30
2019-05-05T11:30:46.062Z,7.20
2019-05-05T11:33:34.677Z,7.10
2019-05-05T11:36:13.625Z,7.00
2019-05-05T11:38:44.535Z,6.80
2019-05-05T11:41:14.529Z,6.80
2019-05-05T11:43:44.021Z,6.80
2019-05-05T11:46:14.163Z,6.90
2019-05-05T11:48:43.962Z,7.00
2019-05-05T11:51:15.095Z,7.20
2019-05-05T11:53:44.802Z,7.30
2019-05-05T11:56:14.550Z,7.60
2019-05-05T11:58:44.325Z,7.90
2019-05-05T12:01:14.057Z,8.10
2019-05-05T12:03:44.376Z,8.40
2019-05-05T12:06:14.727Z,8.30
2019-05-05T12:08:45.832Z,8.50
2019-05-05T12:11:15.461Z,8.70
2019-05-05T12:13:44.751Z,8.80
2019-05-05T12:16:15.659Z,9.00
2019-05-05T12:18:45.083Z,9.10
2019-05-05T12:21:14.942Z,9.20
2019-05-05T12:23:44.704Z,9.30
2019-05-05T12:26:36.042Z,9.30
2019-05-05T12:29:14.383Z,9.10
2019-05-05T12:31:48.984Z,8.50
2019-05-05T12:34:18.451Z,8.20
2019-05-05T12:36:49.753Z,7.90
2019-05-05T12:39:19.079Z,7.80
2019-05-05T12:41:48.369Z,7.70
2019-05-05T12:44:34.077Z,7.80
2019-05-05T12:47:21.271Z,8.00
2019-05-05T12:49:50.653Z,8.10
2019-05-05T12:52:20.011Z,8.60
2019-05-05T12:54:49.295Z,8.90
2019-05-05T12:57:18.576Z,8.90
2019-05-05T12:59:47.971Z,8.80
2019-05-05T13:02:17.849Z,8.70
2019-05-05T13:04:47.116Z,8.50
2019-05-05T13:07:16.455Z,8.60
2019-05-05T13:09:45.746Z,8.80
2019-05-05T13:12:15.540Z,9.00
2019-05-05T13:14:44.817Z,9.20
2019-05-05T13:17:15.693Z,9.30
2019-05-05T13:20:09.770Z,9.30
2019-05-05T13:22:49.859Z,9.10
2019-05-05T13:25:33.862Z,9.00
2019-05-05T13:28:04.087Z,8.90
2019-05-05T13:30:34.402Z,9.10
2019-05-05T13:33:05.157Z,9.30
2019-05-05T13:35:34.425Z,9.60
2019-05-05T13:38:04.139Z,9.90
2019-05-05T13:40:34.571Z,10.00
2019-05-05T13:43:04.369Z,10.30
2019-05-05T13:45:54.065Z,10.20
2019-05-05T13:48:25.519Z,9.80
2019-05-05T13:50:58.650Z,9.70
2019-05-05T13:53:28.078Z,9.80
2019-05-05T13:56:08.944Z,9.70
2019-05-05T13:58:31.486Z,9.60
2019-05-05T14:01:01.045Z,9.80
2019-05-05T14:03:30.641Z,10.00
2019-05-05T14:06:00.201Z,10.10
2019-05-05T14:08:29.669Z,10.20
2019-05-05T14:10:59.162Z,10.10
2019-05-05T14:13:28.386Z,9.70
2019-05-05T14:15:57.717Z,9.30
2019-05-05T14:18:27.084Z,9.10
2019-05-05T14:20:56.310Z,8.90
2019-05-05T14:23:26.169Z,8.70
2019-05-05T14:25:55.479Z,8.60
2019-05-05T14:28:24.807Z,8.70
2019-05-05T14:31:14.938Z,8.90
2019-05-05T14:33:58.931Z,8.90
2019-05-05T14:37:05.614Z,8.80
2019-05-05T14:39:34.881Z,8.70
2019-05-05T14:42:04.542Z,8.90
2019-05-05T14:44:34.326Z,9.10
2019-05-05T14:47:03.687Z,9.00
2019-05-05T14:49:33.939Z,8.90
2019-05-05T14:52:04.453Z,8.90
2019-05-05T14:54:34.232Z,8.90
2019-05-05T14:57:04.533Z,9.00
2019-05-05T14:59:34.916Z,9.00
2019-05-05T15:02:05.011Z,8.90
2019-05-05T15:04:35.905Z,8.90
2019-05-05T15:07:10.621Z,8.80
2019-05-05T15:10:01.311Z,9.00
2019-05-05T15:12:53.825Z,8.80
2019-05-05T15:15:23.611Z,8.60
2019-05-05T15:17:53.634Z,8.70
2019-05-05T15:20:24.473Z,8.90
2019-05-05T15:22:54.316Z,9.10
2019-05-05T15:25:24.111Z,9.30
2019-05-05T15:27:54.207Z,9.60
2019-05-05T15:30:26.851Z,9.80
2019-05-05T15:32:56.044Z,9.90
2019-05-05T15:35:25.424Z,10.00
2019-05-05T15:37:54.681Z,9.80
2019-05-05T15:40:24.789Z,9.50
2019-05-05T15:42:54.540Z,9.50
2019-05-05T15:45:24.011Z,9.40
2019-05-05T15:47:54.032Z,9.20
2019-05-05T15:50:23.648Z,9.30
2019-05-05T15:52:54.452Z,9.20
2019-05-05T15:55:24.537Z,9.10
2019-05-05T15:57:54.050Z,9.30
2019-05-05T16:00:25.479Z,9.50
2019-05-05T16:02:54.973Z,9.50
2019-05-05T16:05:24.379Z,9.60
2019-05-05T16:07:54.244Z,9.60
2019-05-05T16:10:25.212Z,9.40
2019-05-05T16:12:54.612Z,9.50
2019-05-05T16:15:45.737Z,9.60
2019-05-05T16:18:23.462Z,9.90
2019-05-05T16:20:59.315Z,10.00
2019-05-05T16:23:35.689Z,10.10
2019-05-05T16:26:04.724Z,10.30
2019-05-05T16:28:34.331Z,10.50
2019-05-05T16:31:05.412Z,10.60
2019-05-05T16:33:34.760Z,10.70
2019-05-05T16:36:06.250Z,10.50
2019-05-05T16:38:35.278Z,10.30
2019-05-05T16:41:04.607Z,10.30
2019-05-05T16:43:33.961Z,10.20
2019-05-05T16:46:04.258Z,10.20
2019-05-05T16:48:34.375Z,9.80
2019-05-05T16:51:05.368Z,9.40
2019-05-05T16:53:35.586Z,9.30
2019-05-05T16:56:06.544Z,9.40
2019-05-05T16:58:35.910Z,9.40
2019-05-05T17:01:07.794Z,9.50
2019-05-05T17:03:37.123Z,9.60
2019-05-05T17:06:06.574Z,9.70
2019-05-05T17:08:35.908Z,9.90
2019-05-05T17:11:05.117Z,10.00
2019-05-05T17:13:45.399Z,10.00
2019-05-05T17:16:35.322Z,10.00
2019-05-05T17:19:13.967Z,10.10
2019-05-05T17:22:00.852Z,10.10
2019-05-05T17:24:49.157Z,9.90
2019-05-05T17:29:48.532Z,9.60
2019-05-05T17:32:26.003Z,9.30
2019-05-05T17:34:56.245Z,9.20
2019-05-05T17:40:17.549Z,9.00
2019-05-05T17:43:24.392Z,8.90
2019-05-05T17:46:17.931Z,8.70
2019-05-05T17:48:55.429Z,8.60
2019-05-05T17:51:49.826Z,8.40
2019-05-05T17:54:34.044Z,8.40
2019-05-05T17:57:03.756Z,8.30
2019-05-05T17:59:33.788Z,8.20
2019-05-05T18:02:04.803Z,8.20
2019-05-05T18:04:34.267Z,8.20
2019-05-05T18:07:16.873Z,8.10
2019-05-05T18:10:04.089Z,8.10
2019-05-05T18:12:44.608Z,8.10
2019-05-05T18:15:34.127Z,8.20
2019-05-05T18:18:04.359Z,8.10
2019-05-05T18:20:34.182Z,8.10
2019-05-05T18:23:03.608Z,8.00
2019-05-05T18:25:34.695Z,8.00
2019-05-05T18:28:15.758Z,7.90
2019-05-05T18:30:35.538Z,7.90
2019-05-05T18:33:05.078Z,7.80
2019-05-05T18:35:54.154Z,7.70
2019-05-05T18:38:24.083Z,7.60
2019-05-05T18:40:55.276Z,7.40
2019-05-05T18:43:46.604Z,7.40
2019-05-05T18:46:16.368Z,7.30
2019-05-05T18:48:46.672Z,7.20
2019-05-05T18:51:16.547Z,7.20
2019-05-05T18:53:46.508Z,7.20
2019-05-05T18:56:16.595Z,7.20
2019-05-05T18:58:46.563Z,7.10
2019-05-05T19:01:30.615Z,7.00
2019-05-05T19:04:17.976Z,7.10
2019-05-05T19:07:01.496Z,7.10
2019-05-05T19:09:31.142Z,7.10
2019-05-05T19:12:00.789Z,7.10
2019-05-05T19:14:30.453Z,7.10
2019-05-05T19:17:04.539Z,7.20
2019-05-05T19:19:34.676Z,7.20
2019-05-05T19:22:08.942Z,7.20
2019-05-05T19:24:38.606Z,7.20
2019-05-05T19:27:08.262Z,7.20
2019-05-05T19:29:40.800Z,7.20
2019-05-05T19:32:10.477Z,7.10
2019-05-05T19:34:40.366Z,7.10
2019-05-05T19:37:10.086Z,7.10
2019-05-05T19:39:39.787Z,7.10
2019-05-05T19:42:09.596Z,7.10
2019-05-05T19:44:39.355Z,7.10
2019-05-05T19:47:18.194Z,7.10
2019-05-05T19:50:09.889Z,7.10
2019-05-05T19:52:41.015Z,7.10
2019-05-05T19:55:14.952Z,7.00
2019-05-05T19:57:44.698Z,7.00
2019-05-05T20:00:16.582Z,7.10
2019-05-05T20:02:46.251Z,7.10
2019-05-05T20:05:16.316Z,7.10
2019-05-05T20:07:46.202Z,7.10
2019-05-05T20:10:16.024Z,7.10
2019-05-05T20:12:46.961Z,7.00
2019-05-05T20:15:24.249Z,7.00
2019-05-05T20:17:54.097Z,6.90
2019-05-05T20:20:23.744Z,6.90
2019-05-05T20:22:54.805Z,6.90
2019-05-05T20:25:24.713Z,6.80
2019-05-05T20:27:56.086Z,6.70
2019-05-05T20:30:25.945Z,6.70
2019-05-05T20:33:07.026Z,6.70
2019-05-05T20:35:58.993Z,6.60
2019-05-05T20:38:49.551Z,6.60
2019-05-05T20:41:20.464Z,6.50
2019-05-05T20:43:50.177Z,6.30
2019-05-05T20:46:20.051Z,6.20
2019-05-05T20:48:49.719Z,6.10
2019-05-05T20:51:19.446Z,6.00
2019-05-05T20:53:49.478Z,5.90
2019-05-05T20:56:19.607Z,5.90
2019-05-05T20:58:50.563Z,5.80
2019-05-05T21:01:20.553Z,5.80
2019-05-05T21:03:50.478Z,5.80
2019-05-05T21:06:20.287Z,5.70
2019-05-05T21:08:49.969Z,5.60
2019-05-05T21:11:19.813Z,5.60
2019-05-05T21:13:49.706Z,5.60
2019-05-05T21:16:19.445Z,5.50
2019-05-05T21:18:49.188Z,5.50
2019-05-05T21:21:24.673Z,5.50
2019-05-05T21:23:56.853Z,5.50
2019-05-05T21:26:44.186Z,5.50
2019-05-05T21:29:14.126Z,5.50
2019-05-05T21:31:43.950Z,5.50
2019-05-05T21:34:14.103Z,5.50
2019-05-05T21:36:44.779Z,5.50
2019-05-05T21:39:17.639Z,5.50
2019-05-05T21:41:47.219Z,5.50
2019-05-05T21:44:16.913Z,5.50
2019-05-05T21:46:59.529Z,5.40
2019-05-05T21:49:50.386Z,5.40
2019-05-05T21:52:38.042Z,5.30
2019-05-05T21:55:31.138Z,5.30
2019-05-05T21:58:25.298Z,5.30
2019-05-05T22:01:07.415Z,5.30
2019-05-05T22:03:49.576Z,5.30
2019-05-05T22:06:41.529Z,5.30
2019-05-05T22:09:16.766Z,5.20
2019-05-05T22:11:51.963Z,5.20
2019-05-05T22:14:30.042Z,5.30
2019-05-05T22:17:04.265Z,5.30
2019-05-05T22:19:38.297Z,5.30
2019-05-05T22:22:24.396Z,5.30
2019-05-05T22:25:03.762Z,5.40
2019-05-05T22:27:40.199Z,5.40
2019-05-05T22:30:29.770Z,5.50
2019-05-05T22:33:06.031Z,5.50
2019-05-05T22:39:20.250Z,5.40
2019-05-05T22:42:18.994Z,5.40
2019-05-05T22:45:27.146Z,5.40
2019-05-05T22:47:41.068Z,5.40
2019-05-05T22:50:28.711Z,5.30
2019-05-05T22:53:07.302Z,5.30
2019-05-05T22:58:45.551Z,5.30
2019-05-05T23:01:20.039Z,5.30
2019-05-05T23:04:26.078Z,5.30
2019-05-05T23:07:00.696Z,5.30
2019-05-05T23:09:44.222Z,5.30
2019-05-05T23:12:19.219Z,5.30
2019-05-05T23:15:05.839Z,5.40
2019-05-05T23:18:03.787Z,5.40
2019-05-05T23:21:06.175Z,5.40
2019-05-05T23:24:29.934Z,5.40
2019-05-05T23:27:05.297Z,5.40
2019-05-05T23:29:41.417Z,5.30
2019-05-05T23:35:14.284Z,5.30
2019-05-05T23:37:55.050Z,5.30
2019-05-05T23:40:54.078Z,5.30
2019-05-05T23:43:48.443Z,5.30
2019-05-05T23:46:32.062Z,5.30
2019-05-05T23:49:20.049Z,5.30
2019-05-05T23:51:57.149Z,5.30
2019-05-05T23:54:30.328Z,5.40
2019-05-05T23:57:13.766Z,5.30
2019-05-05T23:59:53.761Z,5.30
